Newhouse, United Kingdom

12:35 PM GMT on December 06, 2016 (GMT +0000)
Shotts / Gostagert | | Change Station

Elev 820 ft 55.84 °N, 3.86 °W | Updated 9 seconds ago

Overcast
Overcast
39.4 °F
Feels Like 39 °F
N
0.0
Wind Variable Wind from SSE
Gusts 0.0 mph

Today
High -- | Low -- °F
--% Chance of Precip.
Yesterday
High -- | Low -- °F
Precip. -- in
Pressure 30.18 in
Visibility 3.7 miles
Clouds Overcast 1000 ft
Windchill 39 °F
Dew Point 37 °F
Humidity 91%
Rainfall 0.00 in
Snow Depth Not available.
8:29 AM 3:43 PM
Waxing Crescent, 41% visible
METAR EGPF 061220Z AUTO VRB02KT 6000 OVC010 01/01 Q1022
Pressure 30.18 in
Visibility 3.7 miles
Clouds Overcast 1000 ft
Windchill 39 °F
Dew Point 37 °F
Humidity 91%
Rainfall 0.00 in
Snow Depth Not available.
8:29 AM 3:43 PM
Waxing Crescent, 41% visible
METAR EGPF 061220Z AUTO VRB02KT 6000 OVC010 01/01 Q1022

10-Day Weather Forecast

×

Almanac

Astronomy

Dec. 06, 2016 Rise Set
Actual Time
Civil Twilight
Nautical Twilight
Astronomical Twilight
Moon
Length of Visible Light
Length of Day
Tomorrow will be .
, % of the Moon is Illuminated

Today's Extremes

Country Highs Country Lows

Community

WunderPhotos

Upload Photos

1,955,936 photos uploaded!

WunderBlog® & News

Nearby

Air Quality

  Air Quality AQ Index Pollutant
Not available.

Snow Depth

Station Depth Elevation

Earthquake Activity

City Distance Mag. Time & Date
Minimum magnitude displayed is 2.5.

Coastal Water Temperatures

Place Temperature

Stations

Nearby Weather Stations

Station Location Temp. Windchill Dew Point Humidity Wind Precip. Elev Updated Type